sensor_id;sensor_type;location;lat;lon;timestamp;temperature;humidity
10905;DHT22;5505;51.450;9.254;2023-02-23T00:00:58;8.20;99.90
10905;DHT22;5505;51.450;9.254;2023-02-23T00:03:46;8.20;99.90
10905;DHT22;5505;51.450;9.254;2023-02-23T00:06:34;8.20;99.90
10905;DHT22;5505;51.450;9.254;2023-02-23T00:09:23;8.20;99.90
10905;DHT22;5505;51.450;9.254;2023-02-23T00:12:09;8.20;99.90
10905;DHT22;5505;51.450;9.254;2023-02-23T00:14:56;8.10;99.90
10905;DHT22;5505;51.450;9.254;2023-02-23T00:17:44;8.10;99.90
10905;DHT22;5505;51.450;9.254;2023-02-23T00:20:32;9.30;99.90
10905;DHT22;5505;51.450;9.254;2023-02-23T00:23:19;8.00;99.90
10905;DHT22;5505;51.450;9.254;2023-02-23T00:26:07;7.90;99.90
10905;DHT22;5505;51.450;9.254;2023-02-23T00:28:54;8.00;99.90
10905;DHT22;5505;51.450;9.254;2023-02-23T00:31:40;7.90;99.90
10905;DHT22;5505;51.450;9.254;2023-02-23T00:34:28;7.90;99.90
10905;DHT22;5505;51.450;9.254;2023-02-23T00:37:15;7.90;99.90
10905;DHT22;5505;51.450;9.254;2023-02-23T00:40:03;8.20;99.90
10905;DHT22;5505;51.450;9.254;2023-02-23T00:42:58;7.90;99.90
10905;DHT22;5505;51.450;9.254;2023-02-23T00:45:46;8.10;99.90
10905;DHT22;5505;51.450;9.254;2023-02-23T00:48:33;8.00;99.90
10905;DHT22;5505;51.450;9.254;2023-02-23T00:51:21;8.10;99.90
10905;DHT22;5505;51.450;9.254;2023-02-23T00:54:11;8.20;99.90
10905;DHT22;5505;51.450;9.254;2023-02-23T00:56:58;9.60;99.90
10905;DHT22;5505;51.450;9.254;2023-02-23T00:59:46;8.20;99.90
10905;DHT22;5505;51.450;9.254;2023-02-23T01:02:33;8.20;99.90
10905;DHT22;5505;51.450;9.254;2023-02-23T01:05:19;8.90;99.90
10905;DHT22;5505;51.450;9.254;2023-02-23T01:08:06;8.00;99.90
10905;DHT22;5505;51.450;9.254;2023-02-23T01:10:54;7.90;99.90
10905;DHT22;5505;51.450;9.254;2023-02-23T01:13:42;7.80;99.90
10905;DHT22;5505;51.450;9.254;2023-02-23T01:16:32;7.90;99.90
10905;DHT22;5505;51.450;9.254;2023-02-23T01:19:19;7.90;99.90
10905;DHT22;5505;51.450;9.254;2023-02-23T01:22:06;7.80;99.90
10905;DHT22;5505;51.450;9.254;2023-02-23T01:24:53;8.60;99.90
10905;DHT22;5505;51.450;9.254;2023-02-23T01:27:41;8.00;99.90
10905;DHT22;5505;51.450;9.254;2023-02-23T01:30:28;8.00;99.90
10905;DHT22;5505;51.450;9.254;2023-02-23T01:33:16;8.00;99.90
10905;DHT22;5505;51.450;9.254;2023-02-23T01:36:03;7.90;99.90
10905;DHT22;5505;51.450;9.254;2023-02-23T01:38:50;7.90;99.90
10905;DHT22;5505;51.450;9.254;2023-02-23T01:41:39;7.80;99.90
10905;DHT22;5505;51.450;9.254;2023-02-23T01:48:10;7.80;99.90
10905;DHT22;5505;51.450;9.254;2023-02-23T01:51:01;7.90;99.90
10905;DHT22;5505;51.450;9.254;2023-02-23T01:53:53;7.80;99.90
10905;DHT22;5505;51.450;9.254;2023-02-23T01:56:44;7.90;99.90
10905;DHT22;5505;51.450;9.254;2023-02-23T01:59:35;7.90;99.90
10905;DHT22;5505;51.450;9.254;2023-02-23T02:02:26;7.90;99.90
10905;DHT22;5505;51.450;9.254;2023-02-23T02:05:19;8.10;99.90
10905;DHT22;5505;51.450;9.254;2023-02-23T02:08:08;7.90;99.90
10905;DHT22;5505;51.450;9.254;2023-02-23T02:10:56;7.80;99.90
10905;DHT22;5505;51.450;9.254;2023-02-23T02:13:43;8.70;99.90
10905;DHT22;5505;51.450;9.254;2023-02-23T02:16:40;9.00;99.90
10905;DHT22;5505;51.450;9.254;2023-02-23T02:26:40;7.80;99.90
10905;DHT22;5505;51.450;9.254;2023-02-23T02:29:58;7.80;99.90
10905;DHT22;5505;51.450;9.254;2023-02-23T02:33:28;7.80;99.90
10905;DHT22;5505;51.450;9.254;2023-02-23T02:36:51;7.80;99.90
10905;DHT22;5505;51.450;9.254;2023-02-23T02:39:48;7.80;99.90
10905;DHT22;5505;51.450;9.254;2023-02-23T02:42:58;7.80;99.90
10905;DHT22;5505;51.450;9.254;2023-02-23T02:45:49;7.70;99.90
10905;DHT22;5505;51.450;9.254;2023-02-23T02:48:40;7.70;99.90
10905;DHT22;5505;51.450;9.254;2023-02-23T02:51:34;7.50;99.90
10905;DHT22;5505;51.450;9.254;2023-02-23T02:54:30;7.70;99.90
10905;DHT22;5505;51.450;9.254;2023-02-23T02:57:23;7.30;99.90
10905;DHT22;5505;51.450;9.254;2023-02-23T03:00:15;8.10;99.90
10905;DHT22;5505;51.450;9.254;2023-02-23T03:03:31;7.10;99.90
10905;DHT22;5505;51.450;9.254;2023-02-23T03:06:44;7.10;99.90
10905;DHT22;5505;51.450;9.254;2023-02-23T03:09:55;7.10;99.90
10905;DHT22;5505;51.450;9.254;2023-02-23T03:13:09;7.20;99.90
10905;DHT22;5505;51.450;9.254;2023-02-23T03:16:22;7.00;99.90
10905;DHT22;5505;51.450;9.254;2023-02-23T03:19:31;7.00;99.90
10905;DHT22;5505;51.450;9.254;2023-02-23T03:22:46;7.40;99.90
10905;DHT22;5505;51.450;9.254;2023-02-23T03:25:57;7.10;99.90
10905;DHT22;5505;51.450;9.254;2023-02-23T03:29:10;7.10;99.90
10905;DHT22;5505;51.450;9.254;2023-02-23T03:32:20;7.00;99.90
10905;DHT22;5505;51.450;9.254;2023-02-23T03:35:29;7.00;99.90
10905;DHT22;5505;51.450;9.254;2023-02-23T03:38:37;7.00;99.90
10905;DHT22;5505;51.450;9.254;2023-02-23T03:41:46;8.60;99.90
10905;DHT22;5505;51.450;9.254;2023-02-23T03:44:53;7.10;99.90
10905;DHT22;5505;51.450;9.254;2023-02-23T03:48:00;7.10;99.90
10905;DHT22;5505;51.450;9.254;2023-02-23T03:51:08;7.20;99.90
10905;DHT22;5505;51.450;9.254;2023-02-23T03:54:17;7.30;99.90
10905;DHT22;5505;51.450;9.254;2023-02-23T03:57:27;7.30;99.90
10905;DHT22;5505;51.450;9.254;2023-02-23T04:00:41;7.30;99.90
10905;DHT22;5505;51.450;9.254;2023-02-23T04:03:47;7.70;99.90
10905;DHT22;5505;51.450;9.254;2023-02-23T04:06:56;8.20;99.90
10905;DHT22;5505;51.450;9.254;2023-02-23T04:10:02;7.20;99.90
10905;DHT22;5505;51.450;9.254;2023-02-23T04:13:12;7.30;99.90
10905;DHT22;5505;51.450;9.254;2023-02-23T04:16:02;7.30;99.90
10905;DHT22;5505;51.450;9.254;2023-02-23T04:18:49;7.30;99.90
10905;DHT22;5505;51.450;9.254;2023-02-23T04:21:36;7.30;99.90
10905;DHT22;5505;51.450;9.254;2023-02-23T04:24:22;7.30;99.90
10905;DHT22;5505;51.450;9.254;2023-02-23T04:27:09;7.90;99.90
10905;DHT22;5505;51.450;9.254;2023-02-23T04:29:57;7.30;99.90
10905;DHT22;5505;51.450;9.254;2023-02-23T04:32:44;7.30;99.90
10905;DHT22;5505;51.450;9.254;2023-02-23T04:35:31;7.60;99.90
10905;DHT22;5505;51.450;9.254;2023-02-23T04:38:18;7.20;99.90
10905;DHT22;5505;51.450;9.254;2023-02-23T04:41:04;7.20;99.90
10905;DHT22;5505;51.450;9.254;2023-02-23T04:43:51;7.20;99.90
10905;DHT22;5505;51.450;9.254;2023-02-23T04:46:39;7.10;99.90
10905;DHT22;5505;51.450;9.254;2023-02-23T04:49:26;7.10;99.90
10905;DHT22;5505;51.450;9.254;2023-02-23T04:52:13;7.10;99.90
10905;DHT22;5505;51.450;9.254;2023-02-23T04:54:59;7.10;99.90
10905;DHT22;5505;51.450;9.254;2023-02-23T04:57:46;8.50;99.90
10905;DHT22;5505;51.450;9.254;2023-02-23T05:00:33;7.10;99.90
10905;DHT22;5505;51.450;9.254;2023-02-23T05:03:25;7.20;99.90
10905;DHT22;5505;51.450;9.254;2023-02-23T05:06:11;7.20;99.90
10905;DHT22;5505;51.450;9.254;2023-02-23T05:08:59;7.30;99.90
10905;DHT22;5505;51.450;9.254;2023-02-23T05:11:47;7.30;99.90
10905;DHT22;5505;51.450;9.254;2023-02-23T05:14:34;7.30;99.90
10905;DHT22;5505;51.450;9.254;2023-02-23T05:17:21;7.30;99.90
10905;DHT22;5505;51.450;9.254;2023-02-23T05:20:10;7.90;99.90
10905;DHT22;5505;51.450;9.254;2023-02-23T05:22:57;7.20;99.90
10905;DHT22;5505;51.450;9.254;2023-02-23T05:25:44;8.20;99.90
10905;DHT22;5505;51.450;9.254;2023-02-23T05:28:32;7.30;99.90
10905;DHT22;5505;51.450;9.254;2023-02-23T05:31:19;7.30;99.90
10905;DHT22;5505;51.450;9.254;2023-02-23T05:34:06;8.20;99.90
10905;DHT22;5505;51.450;9.254;2023-02-23T05:36:54;7.20;99.90
10905;DHT22;5505;51.450;9.254;2023-02-23T05:39:41;7.20;99.90
10905;DHT22;5505;51.450;9.254;2023-02-23T05:42:27;7.20;99.90
10905;DHT22;5505;51.450;9.254;2023-02-23T05:45:14;7.20;99.90
10905;DHT22;5505;51.450;9.254;2023-02-23T05:48:01;7.20;99.90
10905;DHT22;5505;51.450;9.254;2023-02-23T05:50:48;7.20;99.90
10905;DHT22;5505;51.450;9.254;2023-02-23T05:53:36;7.20;99.90
10905;DHT22;5505;51.450;9.254;2023-02-23T05:56:24;7.20;99.90
10905;DHT22;5505;51.450;9.254;2023-02-23T05:59:10;7.20;99.90
10905;DHT22;5505;51.450;9.254;2023-02-23T06:01:57;7.20;99.90
10905;DHT22;5505;51.450;9.254;2023-02-23T06:04:44;7.20;99.90
10905;DHT22;5505;51.450;9.254;2023-02-23T06:07:31;8.00;99.90
10905;DHT22;5505;51.450;9.254;2023-02-23T06:10:19;8.00;99.90
10905;DHT22;5505;51.450;9.254;2023-02-23T06:13:06;8.50;99.90
10905;DHT22;5505;51.450;9.254;2023-02-23T06:15:53;7.20;99.90
10905;DHT22;5505;51.450;9.254;2023-02-23T06:18:40;7.30;99.90
10905;DHT22;5505;51.450;9.254;2023-02-23T06:21:26;7.30;99.90
10905;DHT22;5505;51.450;9.254;2023-02-23T06:24:13;7.30;99.90
10905;DHT22;5505;51.450;9.254;2023-02-23T06:27:01;7.30;99.90
10905;DHT22;5505;51.450;9.254;2023-02-23T06:29:49;7.30;99.90
10905;DHT22;5505;51.450;9.254;2023-02-23T06:32:36;7.30;99.90
10905;DHT22;5505;51.450;9.254;2023-02-23T06:35:22;7.40;99.90
10905;DHT22;5505;51.450;9.254;2023-02-23T06:38:10;7.20;99.90
10905;DHT22;5505;51.450;9.254;2023-02-23T06:40:57;7.30;99.90
10905;DHT22;5505;51.450;9.254;2023-02-23T06:43:45;7.30;99.90
10905;DHT22;5505;51.450;9.254;2023-02-23T06:46:32;7.40;99.90
10905;DHT22;5505;51.450;9.254;2023-02-23T06:49:18;9.30;99.90
10905;DHT22;5505;51.450;9.254;2023-02-23T06:52:05;7.40;99.90
10905;DHT22;5505;51.450;9.254;2023-02-23T06:54:52;7.60;99.90
10905;DHT22;5505;51.450;9.254;2023-02-23T06:57:39;8.90;99.90
10905;DHT22;5505;51.450;9.254;2023-02-23T07:00:27;8.00;99.90
10905;DHT22;5505;51.450;9.254;2023-02-23T07:03:14;7.50;99.90
10905;DHT22;5505;51.450;9.254;2023-02-23T07:06:01;7.40;99.90
10905;DHT22;5505;51.450;9.254;2023-02-23T07:08:51;7.50;99.90
10905;DHT22;5505;51.450;9.254;2023-02-23T07:11:38;7.50;99.90
10905;DHT22;5505;51.450;9.254;2023-02-23T07:14:26;9.60;99.90
10905;DHT22;5505;51.450;9.254;2023-02-23T07:17:14;7.50;99.90
10905;DHT22;5505;51.450;9.254;2023-02-23T07:20:02;8.70;99.90
10905;DHT22;5505;51.450;9.254;2023-02-23T07:22:49;7.50;99.90
10905;DHT22;5505;51.450;9.254;2023-02-23T07:25:36;7.50;99.90
10905;DHT22;5505;51.450;9.254;2023-02-23T07:28:23;7.50;99.90
10905;DHT22;5505;51.450;9.254;2023-02-23T07:31:10;7.50;99.90
10905;DHT22;5505;51.450;9.254;2023-02-23T07:33:58;7.50;99.90
10905;DHT22;5505;51.450;9.254;2023-02-23T07:36:45;7.90;99.90
10905;DHT22;5505;51.450;9.254;2023-02-23T07:39:31;7.60;99.90
10905;DHT22;5505;51.450;9.254;2023-02-23T07:42:18;7.60;99.90
10905;DHT22;5505;51.450;9.254;2023-02-23T07:45:06;7.60;99.90
10905;DHT22;5505;51.450;9.254;2023-02-23T07:47:53;7.60;99.90
10905;DHT22;5505;51.450;9.254;2023-02-23T07:50:41;7.50;99.90
10905;DHT22;5505;51.450;9.254;2023-02-23T07:53:28;7.50;99.90
10905;DHT22;5505;51.450;9.254;2023-02-23T07:56:16;7.60;99.90
10905;DHT22;5505;51.450;9.254;2023-02-23T07:59:03;7.50;99.90
10905;DHT22;5505;51.450;9.254;2023-02-23T08:01:49;9.00;99.90
10905;DHT22;5505;51.450;9.254;2023-02-23T08:04:36;7.50;99.90
10905;DHT22;5505;51.450;9.254;2023-02-23T08:07:26;7.50;99.90
10905;DHT22;5505;51.450;9.254;2023-02-23T08:10:13;7.50;99.90
10905;DHT22;5505;51.450;9.254;2023-02-23T08:12:59;7.50;99.90
10905;DHT22;5505;51.450;9.254;2023-02-23T08:15:47;8.60;99.90
10905;DHT22;5505;51.450;9.254;2023-02-23T08:18:34;7.50;99.90
10905;DHT22;5505;51.450;9.254;2023-02-23T08:21:20;7.40;99.90
10905;DHT22;5505;51.450;9.254;2023-02-23T08:24:09;7.40;99.90
10905;DHT22;5505;51.450;9.254;2023-02-23T08:26:56;7.30;99.90
10905;DHT22;5505;51.450;9.254;2023-02-23T08:29:43;7.20;99.90
10905;DHT22;5505;51.450;9.254;2023-02-23T08:32:32;7.10;99.90
10905;DHT22;5505;51.450;9.254;2023-02-23T08:35:19;7.10;99.90
10905;DHT22;5505;51.450;9.254;2023-02-23T08:38:06;8.50;99.90
10905;DHT22;5505;51.450;9.254;2023-02-23T08:40:54;7.10;99.90
10905;DHT22;5505;51.450;9.254;2023-02-23T08:43:41;7.00;99.90
10905;DHT22;5505;51.450;9.254;2023-02-23T08:46:28;7.00;99.90
10905;DHT22;5505;51.450;9.254;2023-02-23T08:49:14;7.10;99.90
10905;DHT22;5505;51.450;9.254;2023-02-23T08:52:01;7.10;99.90
10905;DHT22;5505;51.450;9.254;2023-02-23T08:54:48;7.20;99.90
10905;DHT22;5505;51.450;9.254;2023-02-23T08:57:36;7.20;99.90
10905;DHT22;5505;51.450;9.254;2023-02-23T09:00:23;7.20;99.90
10905;DHT22;5505;51.450;9.254;2023-02-23T09:03:10;7.30;99.90
10905;DHT22;5505;51.450;9.254;2023-02-23T09:06:04;7.20;99.90
10905;DHT22;5505;51.450;9.254;2023-02-23T09:08:52;7.20;99.90
10905;DHT22;5505;51.450;9.254;2023-02-23T09:11:39;7.20;99.90
10905;DHT22;5505;51.450;9.254;2023-02-23T09:14:27;7.20;99.90
10905;DHT22;5505;51.450;9.254;2023-02-23T09:17:14;7.20;99.90
10905;DHT22;5505;51.450;9.254;2023-02-23T09:20:01;7.30;99.90
10905;DHT22;5505;51.450;9.254;2023-02-23T09:22:48;7.30;99.90
10905;DHT22;5505;51.450;9.254;2023-02-23T09:25:39;7.20;99.90
10905;DHT22;5505;51.450;9.254;2023-02-23T09:28:27;7.20;99.90
10905;DHT22;5505;51.450;9.254;2023-02-23T09:31:20;7.30;99.90
10905;DHT22;5505;51.450;9.254;2023-02-23T09:34:07;7.30;99.90
10905;DHT22;5505;51.450;9.254;2023-02-23T09:36:54;8.90;99.90
10905;DHT22;5505;51.450;9.254;2023-02-23T09:39:41;7.40;99.90
10905;DHT22;5505;51.450;9.254;2023-02-23T09:42:36;7.40;99.90
10905;DHT22;5505;51.450;9.254;2023-02-23T09:45:32;8.60;99.90
10905;DHT22;5505;51.450;9.254;2023-02-23T09:48:25;7.50;99.90
10905;DHT22;5505;51.450;9.254;2023-02-23T09:51:16;7.50;99.90
10905;DHT22;5505;51.450;9.254;2023-02-23T09:54:05;7.50;99.90
10905;DHT22;5505;51.450;9.254;2023-02-23T09:56:53;7.60;99.90
10905;DHT22;5505;51.450;9.254;2023-02-23T09:59:40;7.60;99.90
10905;DHT22;5505;51.450;9.254;2023-02-23T10:02:29;8.40;99.90
10905;DHT22;5505;51.450;9.254;2023-02-23T10:05:22;7.70;99.90
10905;DHT22;5505;51.450;9.254;2023-02-23T10:08:18;7.80;99.90
10905;DHT22;5505;51.450;9.254;2023-02-23T10:11:13;8.90;99.90
10905;DHT22;5505;51.450;9.254;2023-02-23T10:14:16;7.90;99.90
10905;DHT22;5505;51.450;9.254;2023-02-23T10:17:12;7.90;99.90
10905;DHT22;5505;51.450;9.254;2023-02-23T10:20:09;7.90;99.90
10905;DHT22;5505;51.450;9.254;2023-02-23T10:23:02;7.90;99.90
10905;DHT22;5505;51.450;9.254;2023-02-23T10:25:53;7.90;99.90
10905;DHT22;5505;51.450;9.254;2023-02-23T10:28:44;7.90;99.90
10905;DHT22;5505;51.450;9.254;2023-02-23T10:31:35;8.90;99.90
10905;DHT22;5505;51.450;9.254;2023-02-23T10:34:24;8.00;99.90
10905;DHT22;5505;51.450;9.254;2023-02-23T10:37:19;8.70;99.90
10905;DHT22;5505;51.450;9.254;2023-02-23T10:40:13;7.90;99.90
10905;DHT22;5505;51.450;9.254;2023-02-23T10:43:01;7.90;99.90
10905;DHT22;5505;51.450;9.254;2023-02-23T10:45:49;7.90;99.90
10905;DHT22;5505;51.450;9.254;2023-02-23T10:48:37;8.10;99.90
10905;DHT22;5505;51.450;9.254;2023-02-23T10:51:35;8.00;99.90
10905;DHT22;5505;51.450;9.254;2023-02-23T10:54:36;8.20;99.90
10905;DHT22;5505;51.450;9.254;2023-02-23T10:57:27;8.10;99.90
10905;DHT22;5505;51.450;9.254;2023-02-23T11:00:28;8.20;99.90
10905;DHT22;5505;51.450;9.254;2023-02-23T11:03:23;8.20;99.90
10905;DHT22;5505;51.450;9.254;2023-02-23T11:06:28;9.50;99.90
10905;DHT22;5505;51.450;9.254;2023-02-23T11:09:22;8.40;99.90
10905;DHT22;5505;51.450;9.254;2023-02-23T11:12:16;9.60;99.90
10905;DHT22;5505;51.450;9.254;2023-02-23T11:15:26;8.50;99.90
10905;DHT22;5505;51.450;9.254;2023-02-23T11:18:18;8.60;99.90
10905;DHT22;5505;51.450;9.254;2023-02-23T11:21:17;8.60;99.90
10905;DHT22;5505;51.450;9.254;2023-02-23T11:24:18;8.50;99.90
10905;DHT22;5505;51.450;9.254;2023-02-23T11:27:19;8.50;99.90
10905;DHT22;5505;51.450;9.254;2023-02-23T11:30:11;8.60;99.90
10905;DHT22;5505;51.450;9.254;2023-02-23T11:33:01;8.60;99.90
10905;DHT22;5505;51.450;9.254;2023-02-23T11:35:58;8.70;99.90
10905;DHT22;5505;51.450;9.254;2023-02-23T11:38:45;8.70;99.90
10905;DHT22;5505;51.450;9.254;2023-02-23T11:41:33;8.70;99.90
10905;DHT22;5505;51.450;9.254;2023-02-23T11:44:22;8.80;99.90
10905;DHT22;5505;51.450;9.254;2023-02-23T11:47:16;8.80;99.90
10905;DHT22;5505;51.450;9.254;2023-02-23T11:50:07;8.90;99.90
10905;DHT22;5505;51.450;9.254;2023-02-23T11:53:11;8.90;99.90
10905;DHT22;5505;51.450;9.254;2023-02-23T11:56:00;9.00;99.90
10905;DHT22;5505;51.450;9.254;2023-02-23T11:58:53;8.90;99.90
10905;DHT22;5505;51.450;9.254;2023-02-23T12:01:43;9.00;99.90
10905;DHT22;5505;51.450;9.254;2023-02-23T12:04:34;9.00;99.90
10905;DHT22;5505;51.450;9.254;2023-02-23T12:07:31;9.20;99.90
10905;DHT22;5505;51.450;9.254;2023-02-23T12:10:24;9.20;99.90
10905;DHT22;5505;51.450;9.254;2023-02-23T12:13:22;9.30;99.90
10905;DHT22;5505;51.450;9.254;2023-02-23T12:16:15;9.40;99.90
10905;DHT22;5505;51.450;9.254;2023-02-23T12:19:19;9.40;99.90
10905;DHT22;5505;51.450;9.254;2023-02-23T12:22:10;9.40;99.90
10905;DHT22;5505;51.450;9.254;2023-02-23T12:25:02;10.40;99.90
10905;DHT22;5505;51.450;9.254;2023-02-23T12:27:54;9.40;99.90
10905;DHT22;5505;51.450;9.254;2023-02-23T12:30:47;9.40;99.90
10905;DHT22;5505;51.450;9.254;2023-02-23T12:33:39;9.50;99.90
10905;DHT22;5505;51.450;9.254;2023-02-23T12:36:32;9.30;99.90
10905;DHT22;5505;51.450;9.254;2023-02-23T12:39:26;9.30;99.90
10905;DHT22;5505;51.450;9.254;2023-02-23T12:42:21;9.30;99.90
10905;DHT22;5505;51.450;9.254;2023-02-23T12:45:17;9.20;99.90
10905;DHT22;5505;51.450;9.254;2023-02-23T12:48:13;9.20;99.90
10905;DHT22;5505;51.450;9.254;2023-02-23T12:51:05;9.60;99.90
10905;DHT22;5505;51.450;9.254;2023-02-23T12:53:56;9.30;99.90
10905;DHT22;5505;51.450;9.254;2023-02-23T12:56:49;9.10;99.90
10905;DHT22;5505;51.450;9.254;2023-02-23T12:59:49;9.10;99.90
10905;DHT22;5505;51.450;9.254;2023-02-23T13:02:46;9.10;99.90
10905;DHT22;5505;51.450;9.254;2023-02-23T13:05:35;11.00;99.90
10905;DHT22;5505;51.450;9.254;2023-02-23T13:08:37;9.10;99.90
10905;DHT22;5505;51.450;9.254;2023-02-23T13:11:42;9.10;99.90
10905;DHT22;5505;51.450;9.254;2023-02-23T13:14:37;9.10;99.90
10905;DHT22;5505;51.450;9.254;2023-02-23T13:17:37;9.50;99.90
10905;DHT22;5505;51.450;9.254;2023-02-23T13:20:30;9.10;99.90
10905;DHT22;5505;51.450;9.254;2023-02-23T13:23:24;10.10;99.90
10905;DHT22;5505;51.450;9.254;2023-02-23T13:26:20;9.10;99.90
10905;DHT22;5505;51.450;9.254;2023-02-23T13:29:23;9.10;99.90
10905;DHT22;5505;51.450;9.254;2023-02-23T13:32:15;9.10;99.90
10905;DHT22;5505;51.450;9.254;2023-02-23T13:35:05;9.20;99.90
10905;DHT22;5505;51.450;9.254;2023-02-23T13:37:56;9.20;99.90
10905;DHT22;5505;51.450;9.254;2023-02-23T13:40:50;9.10;99.90
10905;DHT22;5505;51.450;9.254;2023-02-23T13:43:44;9.20;99.90
10905;DHT22;5505;51.450;9.254;2023-02-23T13:46:43;9.20;99.90
10905;DHT22;5505;51.450;9.254;2023-02-23T13:49:36;9.20;99.90
10905;DHT22;5505;51.450;9.254;2023-02-23T13:52:29;10.00;99.90
10905;DHT22;5505;51.450;9.254;2023-02-23T13:55:44;9.20;99.90
10905;DHT22;5505;51.450;9.254;2023-02-23T13:58:35;9.10;99.90
10905;DHT22;5505;51.450;9.254;2023-02-23T14:01:26;9.10;99.90
10905;DHT22;5505;51.450;9.254;2023-02-23T14:04:20;9.60;99.90
10905;DHT22;5505;51.450;9.254;2023-02-23T14:07:16;9.20;99.90
10905;DHT22;5505;51.450;9.254;2023-02-23T14:10:07;9.00;99.90
10905;DHT22;5505;51.450;9.254;2023-02-23T14:13:11;9.00;99.90
10905;DHT22;5505;51.450;9.254;2023-02-23T14:16:19;9.00;99.90
10905;DHT22;5505;51.450;9.254;2023-02-23T14:19:10;9.00;99.90
10905;DHT22;5505;51.450;9.254;2023-02-23T14:22:00;8.90;99.90
10905;DHT22;5505;51.450;9.254;2023-02-23T14:28:23;8.80;99.90
10905;DHT22;5505;51.450;9.254;2023-02-23T14:31:33;9.50;99.90
10905;DHT22;5505;51.450;9.254;2023-02-23T14:34:21;8.80;99.90
10905;DHT22;5505;51.450;9.254;2023-02-23T14:37:15;8.80;99.90
10905;DHT22;5505;51.450;9.254;2023-02-23T14:40:12;8.70;99.90
10905;DHT22;5505;51.450;9.254;2023-02-23T14:43:02;8.70;99.90
10905;DHT22;5505;51.450;9.254;2023-02-23T14:45:53;8.70;99.90
10905;DHT22;5505;51.450;9.254;2023-02-23T14:48:43;8.70;99.90
10905;DHT22;5505;51.450;9.254;2023-02-23T14:51:36;8.60;99.90
10905;DHT22;5505;51.450;9.254;2023-02-23T14:54:31;8.60;99.90
10905;DHT22;5505;51.450;9.254;2023-02-23T14:57:20;8.70;99.90
10905;DHT22;5505;51.450;9.254;2023-02-23T15:00:14;8.50;99.90
10905;DHT22;5505;51.450;9.254;2023-02-23T15:03:08;8.50;99.90
10905;DHT22;5505;51.450;9.254;2023-02-23T15:05:59;8.50;99.90
10905;DHT22;5505;51.450;9.254;2023-02-23T15:08:46;8.50;99.90
10905;DHT22;5505;51.450;9.254;2023-02-23T15:11:34;8.50;99.90
10905;DHT22;5505;51.450;9.254;2023-02-23T15:14:21;8.50;99.90
10905;DHT22;5505;51.450;9.254;2023-02-23T15:17:13;9.30;99.90
10905;DHT22;5505;51.450;9.254;2023-02-23T15:20:05;8.50;99.90
10905;DHT22;5505;51.450;9.254;2023-02-23T15:22:53;8.40;99.90
10905;DHT22;5505;51.450;9.254;2023-02-23T15:25:41;8.40;99.90
10905;DHT22;5505;51.450;9.254;2023-02-23T15:28:33;8.40;99.90
10905;DHT22;5505;51.450;9.254;2023-02-23T15:31:20;8.40;99.90
10905;DHT22;5505;51.450;9.254;2023-02-23T15:34:07;8.40;99.90
10905;DHT22;5505;51.450;9.254;2023-02-23T15:36:58;8.40;99.90
10905;DHT22;5505;51.450;9.254;2023-02-23T15:39:49;8.40;99.90
10905;DHT22;5505;51.450;9.254;2023-02-23T15:42:42;8.40;99.90
10905;DHT22;5505;51.450;9.254;2023-02-23T15:45:33;8.40;99.90
10905;DHT22;5505;51.450;9.254;2023-02-23T15:48:23;8.30;99.90
10905;DHT22;5505;51.450;9.254;2023-02-23T15:51:20;8.30;99.90
10905;DHT22;5505;51.450;9.254;2023-02-23T15:54:15;9.50;99.90
10905;DHT22;5505;51.450;9.254;2023-02-23T15:57:06;8.30;99.90
10905;DHT22;5505;51.450;9.254;2023-02-23T16:00:00;8.30;99.90
10905;DHT22;5505;51.450;9.254;2023-02-23T16:02:50;8.20;99.90
10905;DHT22;5505;51.450;9.254;2023-02-23T16:05:37;8.30;99.90
10905;DHT22;5505;51.450;9.254;2023-02-23T16:08:27;8.20;99.90
10905;DHT22;5505;51.450;9.254;2023-02-23T16:11:16;8.20;99.90
10905;DHT22;5505;51.450;9.254;2023-02-23T16:14:03;8.20;99.90
10905;DHT22;5505;51.450;9.254;2023-02-23T16:16:52;9.10;99.90
10905;DHT22;5505;51.450;9.254;2023-02-23T16:19:39;8.20;99.90
10905;DHT22;5505;51.450;9.254;2023-02-23T16:22:26;8.30;99.90
10905;DHT22;5505;51.450;9.254;2023-02-23T16:25:15;9.40;99.90
10905;DHT22;5505;51.450;9.254;2023-02-23T16:28:07;5.90;99.90
10905;DHT22;5505;51.450;9.254;2023-02-23T16:30:59;8.10;99.90
10905;DHT22;5505;51.450;9.254;2023-02-23T16:33:51;9.80;99.90
10905;DHT22;5505;51.450;9.254;2023-02-23T16:36:39;8.00;99.90
10905;DHT22;5505;51.450;9.254;2023-02-23T16:39:28;8.00;99.90
10905;DHT22;5505;51.450;9.254;2023-02-23T16:42:21;7.90;99.90
10905;DHT22;5505;51.450;9.254;2023-02-23T16:45:13;7.90;99.90
10905;DHT22;5505;51.450;9.254;2023-02-23T16:48:01;7.80;99.90
10905;DHT22;5505;51.450;9.254;2023-02-23T16:50:49;7.70;99.90
10905;DHT22;5505;51.450;9.254;2023-02-23T16:53:36;7.70;99.90
10905;DHT22;5505;51.450;9.254;2023-02-23T16:56:25;8.30;99.90
10905;DHT22;5505;51.450;9.254;2023-02-23T16:59:15;7.60;99.90
10905;DHT22;5505;51.450;9.254;2023-02-23T17:02:04;7.60;99.90
10905;DHT22;5505;51.450;9.254;2023-02-23T17:04:54;7.60;99.90
10905;DHT22;5505;51.450;9.254;2023-02-23T17:07:43;8.80;99.90
10905;DHT22;5505;51.450;9.254;2023-02-23T17:10:32;8.30;99.90
10905;DHT22;5505;51.450;9.254;2023-02-23T17:13:21;8.60;99.90
10905;DHT22;5505;51.450;9.254;2023-02-23T17:16:10;7.40;99.90
10905;DHT22;5505;51.450;9.254;2023-02-23T17:18:58;9.10;99.90
10905;DHT22;5505;51.450;9.254;2023-02-23T17:21:46;9.50;99.90
10905;DHT22;5505;51.450;9.254;2023-02-23T17:24:33;8.40;99.90
10905;DHT22;5505;51.450;9.254;2023-02-23T17:27:19;7.30;99.90
10905;DHT22;5505;51.450;9.254;2023-02-23T17:30:07;8.10;99.90
10905;DHT22;5505;51.450;9.254;2023-02-23T17:32:56;7.30;99.90
10905;DHT22;5505;51.450;9.254;2023-02-23T17:35:44;7.30;99.90
10905;DHT22;5505;51.450;9.254;2023-02-23T17:38:32;7.30;99.90
10905;DHT22;5505;51.450;9.254;2023-02-23T17:41:19;7.20;99.90
10905;DHT22;5505;51.450;9.254;2023-02-23T17:44:06;8.70;99.90
10905;DHT22;5505;51.450;9.254;2023-02-23T17:46:52;7.20;99.90
10905;DHT22;5505;51.450;9.254;2023-02-23T17:49:39;7.30;99.90
10905;DHT22;5505;51.450;9.254;2023-02-23T17:52:27;8.30;99.90
10905;DHT22;5505;51.450;9.254;2023-02-23T17:55:15;7.30;99.90
10905;DHT22;5505;51.450;9.254;2023-02-23T17:58:02;7.20;99.90
10905;DHT22;5505;51.450;9.254;2023-02-23T18:00:52;7.20;99.90
10905;DHT22;5505;51.450;9.254;2023-02-23T18:03:39;7.20;99.90
10905;DHT22;5505;51.450;9.254;2023-02-23T18:06:26;7.50;99.90
10905;DHT22;5505;51.450;9.254;2023-02-23T18:09:15;7.20;99.90
10905;DHT22;5505;51.450;9.254;2023-02-23T18:12:02;7.20;99.90
10905;DHT22;5505;51.450;9.254;2023-02-23T18:14:49;7.20;99.90
10905;DHT22;5505;51.450;9.254;2023-02-23T18:17:36;7.20;99.90
10905;DHT22;5505;51.450;9.254;2023-02-23T18:20:23;7.20;99.90
10905;DHT22;5505;51.450;9.254;2023-02-23T18:23:10;7.60;99.90
10905;DHT22;5505;51.450;9.254;2023-02-23T18:26:04;8.10;99.90
10905;DHT22;5505;51.450;9.254;2023-02-23T18:28:52;7.10;99.90
10905;DHT22;5505;51.450;9.254;2023-02-23T18:31:40;8.50;99.90
10905;DHT22;5505;51.450;9.254;2023-02-23T18:34:28;7.80;99.90
10905;DHT22;5505;51.450;9.254;2023-02-23T18:37:15;7.00;99.90
10905;DHT22;5505;51.450;9.254;2023-02-23T18:40:10;7.00;99.90
10905;DHT22;5505;51.450;9.254;2023-02-23T18:43:09;7.00;99.90
10905;DHT22;5505;51.450;9.254;2023-02-23T18:45:57;7.00;99.90
10905;DHT22;5505;51.450;9.254;2023-02-23T18:48:47;8.20;99.90
10905;DHT22;5505;51.450;9.254;2023-02-23T18:51:34;7.00;99.90
10905;DHT22;5505;51.450;9.254;2023-02-23T18:54:21;7.50;99.90